createdAt,value
2019-03-22T00:00:43.930Z,8.34
2019-03-22T02:36:00.718Z,6.83
2019-03-22T02:38:30.433Z,6.82
2019-03-22T02:41:00.123Z,6.82
2019-03-22T02:43:29.799Z,6.81
2019-03-22T02:45:59.479Z,6.78
2019-03-22T02:48:29.211Z,6.77
2019-03-22T02:50:58.930Z,6.76
2019-03-22T02:53:28.627Z,6.76
2019-03-22T02:55:58.658Z,6.68
2019-03-22T02:58:28.462Z,6.62
2019-03-22T03:00:58.113Z,6.54
2019-03-22T03:03:27.804Z,6.45
2019-03-22T03:05:57.515Z,6.28
2019-03-22T03:08:27.195Z,6.19
2019-03-22T03:10:56.904Z,6.16
2019-03-22T03:13:26.606Z,6.18
2019-03-22T03:15:56.270Z,6.23
2019-03-22T03:18:25.939Z,6.29
2019-03-22T03:20:55.640Z,6.32
2019-03-22T03:23:25.565Z,6.32
2019-03-22T03:25:55.262Z,6.31
2019-03-22T03:28:36.044Z,6.30
2019-03-22T03:30:56.396Z,6.27
2019-03-22T03:33:26.108Z,6.28
2019-03-22T03:35:55.790Z,6.26
2019-03-22T03:38:25.511Z,6.23
2019-03-22T03:40:55.234Z,6.20
2019-03-22T03:43:24.923Z,6.19
2019-03-22T03:45:54.636Z,6.16
2019-03-22T03:48:24.345Z,6.14
2019-03-22T03:50:54.149Z,6.12
2019-03-22T03:53:23.842Z,6.11
2019-03-22T03:55:53.503Z,6.11
2019-03-22T03:58:23.176Z,6.11
2019-03-22T04:00:52.868Z,6.12
2019-03-22T04:03:22.553Z,6.13
2019-03-22T04:05:52.276Z,6.15
2019-03-22T04:08:21.972Z,6.17
2019-03-22T04:10:51.666Z,6.17
2019-03-22T04:13:21.337Z,6.18
2019-03-22T04:15:51.077Z,6.14
2019-03-22T04:18:20.955Z,6.07
2019-03-22T04:20:50.741Z,6.02
2019-03-22T04:23:20.501Z,5.93
2019-03-22T04:25:50.183Z,5.89
2019-03-22T04:28:20.123Z,5.84
2019-03-22T04:30:50.017Z,5.85
2019-03-22T04:33:19.809Z,5.92
2019-03-22T04:35:49.496Z,5.96
2019-03-22T04:38:19.157Z,5.96
2019-03-22T04:40:48.870Z,5.97
2019-03-22T04:43:18.534Z,5.98
2019-03-22T04:45:50.347Z,6.01
2019-03-22T04:48:28.193Z,6.05
2019-03-22T04:51:00.959Z,6.07
2019-03-22T04:53:35.585Z,6.09
2019-03-22T04:56:05.543Z,6.09
2019-03-22T04:58:36.398Z,6.09
2019-03-22T05:01:07.031Z,6.10
2019-03-22T05:03:38.393Z,6.10
2019-03-22T05:06:09.770Z,6.09
2019-03-22T05:08:41.813Z,6.12
2019-03-22T05:11:14.453Z,6.13
2019-03-22T05:13:46.178Z,6.10
2019-03-22T05:16:18.530Z,6.07
2019-03-22T05:18:51.326Z,6.10
2019-03-22T05:21:25.006Z,6.10
2019-03-22T05:24:18.297Z,6.10
2019-03-22T05:26:50.092Z,6.11
2019-03-22T05:29:40.096Z,6.13
2019-03-22T05:32:12.315Z,6.16
2019-03-22T05:34:42.054Z,6.19
2019-03-22T05:37:11.820Z,6.23
2019-03-22T05:39:41.797Z,6.26
2019-03-22T05:42:11.610Z,6.25
2019-03-22T05:44:41.280Z,6.22
2019-03-22T05:47:11.018Z,6.22
2019-03-22T05:49:40.691Z,6.20
2019-03-22T05:52:10.462Z,6.22
2019-03-22T05:54:40.143Z,6.28
2019-03-22T05:57:13.588Z,6.34
2019-03-22T05:59:42.799Z,6.38
2019-03-22T06:02:12.679Z,6.40
2019-03-22T06:04:42.362Z,6.42
2019-03-22T06:07:12.023Z,6.42
2019-03-22T06:09:41.797Z,6.44
2019-03-22T06:12:11.503Z,6.46
2019-03-22T06:14:41.179Z,6.49
2019-03-22T06:17:10.929Z,6.55
2019-03-22T06:19:40.584Z,6.57
2019-03-22T06:22:10.286Z,6.60
2019-03-22T06:24:39.924Z,6.60
2019-03-22T06:27:09.592Z,6.59
2019-03-22T06:29:39.280Z,6.59
2019-03-22T06:32:08.962Z,6.63
2019-03-22T06:34:38.700Z,6.66
2019-03-22T06:37:08.374Z,6.71
2019-03-22T06:39:38.014Z,6.74
2019-03-22T06:42:07.703Z,6.75
2019-03-22T06:44:37.382Z,6.80
2019-03-22T06:47:07.072Z,6.81
2019-03-22T06:49:36.737Z,6.80
2019-03-22T06:52:06.423Z,6.79
2019-03-22T06:54:36.100Z,6.79
2019-03-22T06:57:05.763Z,6.84
2019-03-22T06:59:35.519Z,6.89
2019-03-22T07:02:05.251Z,6.96
2019-03-22T07:04:34.919Z,7.01
2019-03-22T07:07:04.610Z,7.05
2019-03-22T07:09:34.280Z,7.08
2019-03-22T07:12:03.949Z,7.07
2019-03-22T07:14:33.619Z,7.09
2019-03-22T07:17:03.326Z,7.10
2019-03-22T07:19:32.976Z,7.11
2019-03-22T07:22:02.617Z,7.14
2019-03-22T07:24:32.293Z,7.17
2019-03-22T07:27:01.945Z,7.20
2019-03-22T07:29:31.615Z,7.17
2019-03-22T07:32:01.289Z,7.15
2019-03-22T07:34:31.000Z,7.18
2019-03-22T07:37:00.680Z,7.25
2019-03-22T07:39:30.333Z,7.33
2019-03-22T07:42:00.021Z,7.41
2019-03-22T07:44:29.664Z,7.50
2019-03-22T07:46:59.324Z,7.58
2019-03-22T07:49:28.973Z,7.67
2019-03-22T07:51:58.666Z,7.74
2019-03-22T07:54:28.304Z,7.79
2019-03-22T07:56:57.952Z,7.85
2019-03-22T07:59:27.664Z,7.93
2019-03-22T08:01:57.363Z,8.04
2019-03-22T08:04:27.040Z,8.15
2019-03-22T08:06:56.712Z,8.23
2019-03-22T08:09:26.429Z,8.24
2019-03-22T08:11:56.087Z,8.26
2019-03-22T08:14:25.772Z,8.36
2019-03-22T08:16:55.451Z,8.52
2019-03-22T08:19:25.190Z,8.68
2019-03-22T08:21:54.830Z,8.85
2019-03-22T08:24:24.482Z,9.02
2019-03-22T08:26:54.169Z,9.24
2019-03-22T08:29:23.841Z,9.45
2019-03-22T08:31:53.591Z,9.56
2019-03-22T08:34:23.324Z,9.55
2019-03-22T08:36:52.963Z,9.54
2019-03-22T08:39:22.619Z,9.53
2019-03-22T08:41:52.295Z,9.50
2019-03-22T08:44:21.971Z,9.60
2019-03-22T08:46:51.633Z,9.87
2019-03-22T08:49:21.344Z,10.34
2019-03-22T08:51:51.135Z,11.40
2019-03-22T08:54:20.782Z,12.99
2019-03-22T08:56:50.492Z,14.92
2019-03-22T08:59:20.362Z,16.74
2019-03-22T09:01:50.060Z,18.20
2019-03-22T09:04:19.719Z,19.50
2019-03-22T09:06:49.437Z,20.57
2019-03-22T09:09:19.100Z,21.34
2019-03-22T09:11:48.708Z,21.57
2019-03-22T09:14:18.362Z,21.73
2019-03-22T09:16:48.074Z,21.91
2019-03-22T09:19:17.708Z,22.16
2019-03-22T09:21:47.437Z,22.62
2019-03-22T09:24:19.028Z,23.16
2019-03-22T09:26:48.528Z,23.50
2019-03-22T09:29:18.231Z,23.75
2019-03-22T09:31:47.918Z,24.07
2019-03-22T09:34:17.542Z,24.15
2019-03-22T09:36:47.188Z,24.28
2019-03-22T09:39:16.882Z,24.50
2019-03-22T09:41:46.551Z,24.45
2019-03-22T09:44:16.246Z,24.13
2019-03-22T09:46:45.936Z,23.73
2019-03-22T09:49:15.613Z,23.70
2019-03-22T09:51:45.323Z,23.54
2019-03-22T09:54:15.038Z,23.37
2019-03-22T09:56:47.215Z,23.15
2019-03-22T09:59:16.153Z,22.97
2019-03-22T10:01:45.861Z,22.85
2019-03-22T10:04:15.526Z,22.94
2019-03-22T10:06:45.311Z,22.75
2019-03-22T10:09:14.952Z,22.58
2019-03-22T10:11:44.627Z,22.47
2019-03-22T10:14:14.298Z,22.35
2019-03-22T10:16:43.975Z,22.28
2019-03-22T10:19:13.616Z,22.37
2019-03-22T10:21:43.381Z,22.38
2019-03-22T10:24:13.067Z,22.44
2019-03-22T10:26:42.708Z,22.14
2019-03-22T10:29:12.396Z,22.08
2019-03-22T10:31:42.112Z,22.09
2019-03-22T10:34:11.787Z,22.04
2019-03-22T10:36:41.500Z,22.10
2019-03-22T10:39:11.436Z,22.07
2019-03-22T10:41:41.140Z,22.17
2019-03-22T10:44:10.815Z,22.31
2019-03-22T10:46:40.545Z,22.27
2019-03-22T10:49:10.207Z,22.25
2019-03-22T10:51:39.887Z,22.27
2019-03-22T10:54:09.602Z,22.41
2019-03-22T10:56:39.285Z,22.45
2019-03-22T10:59:08.949Z,22.27
2019-03-22T11:01:48.664Z,22.21
2019-03-22T11:06:39.681Z,22.30
2019-03-22T11:09:10.177Z,22.11
2019-03-22T11:11:39.852Z,22.25
2019-03-22T11:14:09.575Z,22.17
2019-03-22T11:16:39.326Z,21.96
2019-03-22T11:19:08.984Z,21.96
2019-03-22T11:21:38.654Z,21.69
2019-03-22T11:24:08.297Z,21.68
2019-03-22T11:26:37.969Z,21.75
2019-03-22T11:29:07.716Z,21.76
2019-03-22T11:31:40.135Z,21.74
2019-03-22T11:34:08.788Z,21.74
2019-03-22T11:36:38.460Z,21.65
2019-03-22T11:39:15.913Z,21.69
2019-03-22T11:41:43.686Z,21.65
2019-03-22T11:44:13.375Z,21.62
2019-03-22T11:46:43.060Z,21.58
2019-03-22T11:49:12.864Z,21.58
2019-03-22T11:51:42.620Z,21.71
2019-03-22T11:54:12.360Z,21.73
2019-03-22T11:56:42.033Z,21.71
2019-03-22T11:59:11.751Z,21.79
2019-03-22T12:01:41.449Z,21.68
2019-03-22T12:04:11.969Z,21.62
2019-03-22T12:06:41.631Z,21.65
2019-03-22T12:09:11.341Z,21.64
2019-03-22T12:11:42.146Z,21.72
2019-03-22T12:14:11.999Z,21.74
2019-03-22T12:16:41.737Z,21.68
2019-03-22T12:19:11.400Z,21.48
2019-03-22T12:21:41.110Z,21.41
2019-03-22T12:24:10.864Z,21.34
2019-03-22T12:26:40.583Z,21.26
2019-03-22T12:29:10.274Z,21.30
2019-03-22T12:31:39.955Z,21.24
2019-03-22T12:34:09.675Z,20.93
2019-03-22T12:36:39.425Z,21.23
2019-03-22T12:39:10.053Z,21.24
2019-03-22T12:41:39.732Z,21.17
2019-03-22T12:44:09.482Z,21.14
2019-03-22T12:46:39.169Z,21.12
2019-03-22T12:49:08.850Z,21.10
2019-03-22T12:51:38.514Z,21.15
2019-03-22T12:54:08.215Z,21.29
2019-03-22T12:56:37.884Z,21.35
2019-03-22T12:59:07.635Z,21.34
2019-03-22T13:01:37.311Z,21.25
2019-03-22T13:04:07.000Z,21.20
2019-03-22T13:06:36.722Z,21.38
2019-03-22T13:09:09.185Z,21.41
2019-03-22T13:11:38.912Z,21.56
2019-03-22T13:14:08.583Z,21.71
2019-03-22T13:16:38.271Z,21.88
2019-03-22T13:19:07.922Z,21.84
2019-03-22T13:21:37.613Z,21.87
2019-03-22T13:24:07.307Z,21.83
2019-03-22T13:26:36.989Z,21.77
2019-03-22T13:29:06.699Z,21.77
2019-03-22T13:31:36.457Z,21.86
2019-03-22T13:34:06.161Z,22.00
2019-03-22T13:36:35.860Z,22.03
2019-03-22T13:39:08.184Z,22.08
2019-03-22T13:41:38.002Z,22.12
2019-03-22T13:44:07.849Z,22.18
2019-03-22T13:46:40.617Z,22.16
2019-03-22T13:49:09.119Z,22.22
2019-03-22T13:51:38.923Z,22.26
2019-03-22T13:54:08.614Z,22.32
2019-03-22T13:56:38.366Z,22.37
2019-03-22T13:59:08.058Z,22.48
2019-03-22T14:01:37.725Z,22.57
2019-03-22T14:04:07.461Z,22.49
2019-03-22T14:06:37.233Z,22.36
2019-03-22T14:09:08.805Z,22.46
2019-03-22T14:11:38.567Z,22.46
2019-03-22T14:14:08.263Z,22.47
2019-03-22T14:16:37.969Z,22.45
2019-03-22T14:19:07.647Z,22.50
2019-03-22T14:21:37.313Z,22.59
2019-03-22T14:24:07.013Z,22.62
2019-03-22T14:26:36.693Z,22.77
2019-03-22T14:29:06.403Z,22.69
2019-03-22T14:31:36.085Z,22.50
2019-03-22T14:34:05.757Z,22.44
2019-03-22T14:36:35.413Z,22.39
2019-03-22T14:39:07.840Z,22.37
2019-03-22T14:41:37.538Z,22.33
2019-03-22T14:44:07.255Z,22.38
2019-03-22T14:46:36.932Z,22.24
2019-03-22T14:49:06.599Z,22.09
2019-03-22T14:51:36.284Z,22.07
2019-03-22T14:54:05.951Z,21.91
2019-03-22T14:56:35.622Z,21.95
2019-03-22T14:59:05.291Z,22.04
2019-03-22T15:01:34.959Z,22.03
2019-03-22T15:04:04.650Z,22.15
2019-03-22T15:06:34.326Z,22.18
2019-03-22T15:09:05.700Z,22.12
2019-03-22T15:11:35.454Z,22.08
2019-03-22T15:14:15.237Z,21.97
2019-03-22T15:17:05.804Z,21.93
2019-03-22T15:19:53.036Z,21.97
2019-03-22T15:22:44.502Z,22.05
2019-03-22T15:25:33.586Z,22.02
2019-03-22T15:28:21.979Z,22.06
2019-03-22T15:31:13.052Z,21.98
2019-03-22T15:34:07.906Z,21.88
2019-03-22T15:36:54.289Z,21.88
2019-03-22T15:39:49.220Z,21.74
2019-03-22T15:42:18.869Z,21.76
2019-03-22T15:44:48.571Z,21.75
2019-03-22T15:47:18.235Z,21.71
2019-03-22T15:49:56.792Z,21.79
2019-03-22T15:52:26.518Z,21.63
2019-03-22T15:54:56.209Z,21.55
2019-03-22T15:57:26.023Z,21.49
2019-03-22T15:59:55.713Z,21.47
2019-03-22T16:02:25.387Z,21.55
2019-03-22T16:04:55.083Z,21.68
2019-03-22T16:07:24.843Z,21.64
2019-03-22T16:09:54.578Z,21.57
2019-03-22T16:12:24.262Z,21.43
2019-03-22T16:14:53.954Z,21.39
2019-03-22T16:17:23.646Z,21.34
2019-03-22T16:19:53.376Z,21.37
2019-03-22T16:22:23.079Z,21.33
2019-03-22T16:24:52.764Z,21.33
2019-03-22T16:27:22.490Z,21.36
2019-03-22T16:29:52.213Z,21.28
2019-03-22T16:32:21.850Z,21.34
2019-03-22T16:34:51.554Z,21.29
2019-03-22T16:37:21.307Z,21.28
2019-03-22T16:39:51.038Z,21.29
2019-03-22T16:42:20.742Z,21.28
2019-03-22T16:44:50.374Z,21.24
2019-03-22T16:47:20.092Z,21.19
2019-03-22T16:49:49.862Z,21.16
2019-03-22T16:52:19.556Z,21.11
2019-03-22T16:54:49.215Z,21.03
2019-03-22T16:57:18.898Z,20.95
2019-03-22T16:59:48.677Z,20.88
2019-03-22T17:02:18.442Z,20.77
2019-03-22T17:04:48.299Z,20.64
2019-03-22T17:07:18.028Z,20.56
2019-03-22T17:09:47.917Z,20.44
2019-03-22T17:12:17.638Z,20.35
2019-03-22T17:14:47.364Z,20.25
2019-03-22T17:17:17.124Z,20.13
2019-03-22T17:19:46.847Z,19.99
2019-03-22T17:22:16.547Z,19.85
2019-03-22T17:24:46.313Z,19.76
2019-03-22T17:27:16.062Z,19.67
2019-03-22T17:29:45.953Z,19.58
2019-03-22T17:32:15.691Z,19.50
2019-03-22T17:34:45.461Z,19.42
2019-03-22T17:37:15.294Z,19.35
2019-03-22T17:39:47.230Z,19.25
2019-03-22T17:42:17.202Z,19.13
2019-03-22T17:44:46.867Z,18.96
2019-03-22T17:47:16.577Z,18.81
2019-03-22T17:49:48.415Z,18.69
2019-03-22T17:52:17.870Z,18.56
2019-03-22T17:54:47.702Z,18.44
2019-03-22T17:57:18.976Z,18.31
2019-03-22T17:59:48.920Z,18.18
2019-03-22T18:02:18.614Z,18.09
2019-03-22T18:04:48.386Z,18.02
2019-03-22T18:07:18.123Z,17.94
2019-03-22T18:09:47.888Z,17.82
2019-03-22T18:12:17.591Z,17.72
2019-03-22T18:14:47.916Z,17.53
2019-03-22T18:17:17.715Z,17.39
2019-03-22T18:19:47.408Z,17.24
2019-03-22T18:22:17.129Z,17.11
2019-03-22T18:24:47.232Z,16.93
2019-03-22T18:27:17.087Z,16.76
2019-03-22T18:29:46.944Z,16.64
2019-03-22T18:32:16.871Z,16.46
2019-03-22T18:34:46.563Z,16.34
2019-03-22T18:37:16.288Z,16.27
2019-03-22T18:39:46.053Z,16.22
2019-03-22T18:42:15.913Z,16.16
2019-03-22T18:44:45.631Z,14.87
2019-03-22T18:47:15.403Z,16.03
2019-03-22T18:49:45.321Z,15.95
2019-03-22T18:52:15.989Z,15.88
2019-03-22T18:54:45.889Z,15.81
2019-03-22T18:57:15.653Z,15.71
2019-03-22T18:59:46.149Z,15.59
2019-03-22T19:02:15.943Z,15.47
2019-03-22T19:04:46.139Z,15.44
2019-03-22T19:07:16.283Z,15.40
2019-03-22T19:09:46.464Z,15.39
2019-03-22T19:12:16.158Z,15.34
2019-03-22T19:14:46.057Z,15.24
2019-03-22T19:17:15.949Z,15.18
2019-03-22T19:19:45.802Z,15.06
2019-03-22T19:22:15.776Z,14.92
2019-03-22T19:24:45.469Z,14.79
2019-03-22T19:27:15.283Z,14.74
2019-03-22T19:29:45.012Z,14.69
2019-03-22T19:32:14.787Z,14.64
2019-03-22T19:34:53.923Z,14.57
2019-03-22T19:37:16.167Z,14.52
2019-03-22T19:39:45.916Z,14.40
2019-03-22T19:42:15.630Z,14.29
2019-03-22T19:44:45.639Z,14.21
2019-03-22T19:47:15.881Z,14.15
2019-03-22T19:49:45.567Z,14.07
2019-03-22T19:52:15.353Z,13.99
2019-03-22T19:54:45.089Z,13.94
2019-03-22T19:57:14.978Z,13.88
2019-03-22T19:59:44.746Z,13.79
2019-03-22T20:02:14.530Z,13.73
2019-03-22T20:04:44.392Z,13.66
2019-03-22T20:07:14.174Z,13.62
2019-03-22T20:09:44.521Z,13.58
2019-03-22T20:12:14.195Z,13.56
2019-03-22T20:14:44.033Z,13.56
2019-03-22T20:17:13.873Z,13.51
2019-03-22T20:19:43.650Z,13.45
2019-03-22T20:22:13.620Z,13.37
2019-03-22T20:24:43.363Z,13.30
2019-03-22T20:27:13.060Z,13.25
2019-03-22T20:29:42.788Z,13.19
2019-03-22T20:32:12.706Z,13.10
2019-03-22T20:34:42.418Z,13.03
2019-03-22T20:37:12.136Z,12.97
2019-03-22T20:39:42.083Z,12.91
2019-03-22T20:42:11.783Z,12.89
2019-03-22T20:44:41.872Z,12.87
2019-03-22T20:47:11.873Z,12.87
2019-03-22T20:49:41.729Z,12.85
2019-03-22T20:52:11.661Z,12.83
2019-03-22T20:54:41.469Z,12.75
2019-03-22T20:57:11.403Z,12.66
2019-03-22T20:59:41.496Z,12.58
2019-03-22T21:02:11.201Z,12.52
2019-03-22T21:04:40.949Z,12.47
2019-03-22T21:07:10.744Z,12.45
2019-03-22T21:09:40.437Z,12.39
2019-03-22T21:12:10.136Z,12.34
2019-03-22T21:14:40.001Z,12.24
2019-03-22T21:17:09.753Z,12.16
2019-03-22T21:19:39.468Z,12.08
2019-03-22T21:22:09.288Z,11.99
2019-03-22T21:24:39.507Z,11.92
2019-03-22T21:27:15.568Z,11.91
2019-03-22T21:29:44.395Z,11.88
2019-03-22T21:32:12.910Z,11.85
2019-03-22T21:34:44.139Z,11.83
2019-03-22T21:37:14.232Z,11.82
2019-03-22T21:39:43.960Z,11.78
2019-03-22T21:42:13.700Z,11.72
2019-03-22T21:44:43.606Z,11.65
2019-03-22T21:47:13.382Z,11.59
2019-03-22T21:49:43.114Z,11.52
2019-03-22T21:52:12.809Z,11.47
2019-03-22T21:54:42.700Z,11.43
2019-03-22T21:57:12.699Z,11.42
2019-03-22T21:59:42.582Z,11.39
2019-03-22T22:02:12.331Z,11.35
2019-03-22T22:04:42.147Z,11.28
2019-03-22T22:07:11.917Z,11.24
2019-03-22T22:09:41.615Z,11.19
2019-03-22T22:12:11.439Z,11.13
2019-03-22T22:14:41.364Z,11.11
2019-03-22T22:17:11.056Z,11.08
2019-03-22T22:19:40.798Z,11.03
2019-03-22T22:22:10.539Z,10.97
2019-03-22T22:24:40.326Z,10.94
2019-03-22T22:27:13.978Z,10.88
2019-03-22T22:29:41.552Z,10.86
2019-03-22T22:32:11.583Z,10.80
2019-03-22T22:34:41.376Z,10.76
2019-03-22T22:37:11.052Z,10.74
2019-03-22T22:39:40.765Z,10.68
2019-03-22T22:42:10.532Z,10.60
2019-03-22T22:44:40.295Z,10.53
2019-03-22T22:47:09.990Z,10.49
2019-03-22T22:49:39.918Z,10.49
2019-03-22T22:52:09.671Z,10.48
2019-03-22T22:54:39.501Z,10.47
2019-03-22T22:57:09.236Z,10.46
2019-03-22T22:59:38.954Z,10.46
2019-03-22T23:02:08.672Z,10.39
2019-03-22T23:04:38.339Z,10.36
2019-03-22T23:07:08.007Z,10.33
2019-03-22T23:09:37.682Z,10.30
2019-03-22T23:12:07.513Z,10.23
2019-03-22T23:14:37.178Z,10.20
2019-03-22T23:17:06.869Z,10.17
2019-03-22T23:19:36.701Z,10.12
2019-03-22T23:22:06.391Z,10.08
2019-03-22T23:24:36.098Z,10.05
2019-03-22T23:27:05.757Z,10.00
2019-03-22T23:29:35.617Z,9.96
2019-03-22T23:32:05.369Z,9.91
2019-03-22T23:34:35.071Z,9.85
2019-03-22T23:37:07.032Z,9.81
2019-03-22T23:39:36.193Z,9.77
2019-03-22T23:42:05.888Z,9.74
2019-03-22T23:44:35.564Z,9.70
2019-03-22T23:47:05.426Z,9.62
2019-03-22T23:49:35.073Z,9.41
2019-03-22T23:52:04.750Z,9.51
2019-03-22T23:54:34.445Z,9.49
2019-03-22T23:57:04.124Z,9.48
2019-03-22T23:59:33.812Z,9.48
